PWSweather.com
Personal Weather Stations
Station Observations
KCTHAMDEN
Dunbar Hill, Hamden, CT 06514

Dunbar HillHamden, CT 06514

Lat: 41.365437, Lon: -72.956532

Elevation: 200

Station Type: Davis Vantage Pro2+

www.hamdenweather.com

High Low Average
Temperature 54.7°F12.6°C 40.8°F4.9°C 47.1°F8.4°C
Dew Point 51.9°F11.1°C 35.0°F1.7°C 41.7°F5.4°C
Winds 5.4 mph 8.7 kmh Calm Calm 2.0 mph SW3.2 kmh SW
Wind Gusts 12.0 mph19.3 kmh -- 3.0 mph4.8 kmh
Humidity 95% 63% 82%
Pressure 30.09 in1019.0 mb 29.72 in1006.4 mb -
Precipitation 0.21 in5.3 mm - -
Hour Temp Dew Point Humidity Winds Wind Gusts Pressure Precip Precip Rate Daily Precip Total
12:00 AM 40.8°F4.9°C 36.6°F2.6°C 85% 0.3 mph ESE0.5 kmh ESE 1.0 mph1.6 kmh 30.09 in1019.0 mb - 0.00 in0.0 mm 0.00 in0.0 mm
12:15 AM 41.0°F5.0°C 37.1°F2.8°C 86% Calm Calm 1.0 mph1.6 kmh 30.09 in1019.0 mb - 0.00 in0.0 mm 0.00 in0.0 mm
12:30 AM 41.1°F5.1°C 37.2°F2.9°C 86% 0.6 mph ESE1.0 kmh ESE 1.0 mph1.6 kmh 30.08 in1018.6 mb - 0.00 in0.0 mm 0.00 in0.0 mm
12:45 AM 41.3°F5.2°C 37.1°F2.8°C 85% 0.7 mph ESE1.1 kmh ESE 1.0 mph1.6 kmh 30.07 in1018.3 mb - 0.00 in0.0 mm 0.00 in0.0 mm
01:00 AM 41.5°F5.3°C 36.7°F2.6°C 83% 1.7 mph N2.7 kmh N 3.0 mph4.8 kmh 30.06 in1017.9 mb - 0.00 in0.0 mm 0.00 in0.0 mm
01:15 AM 41.7°F5.4°C 37.2°F2.9°C 84% 0.4 mph N0.6 kmh N 1.0 mph1.6 kmh 30.05 in1017.6 mb - 0.00 in0.0 mm 0.00 in0.0 mm
01:30 AM 41.8°F5.4°C 37.6°F3.1°C 85% 0.5 mph N0.8 kmh N 2.0 mph3.2 kmh 30.05 in1017.6 mb - 0.00 in0.0 mm 0.00 in0.0 mm
01:45 AM 41.7°F5.4°C 37.0°F2.8°C 83% 1.0 mph N1.6 kmh N 1.0 mph1.6 kmh 30.04 in1017.3 mb - 0.00 in0.0 mm 0.00 in0.0 mm
02:00 AM 41.9°F5.5°C 37.1°F2.8°C 83% 0.5 mph N0.8 kmh N 1.0 mph1.6 kmh 30.04 in1017.3 mb - 0.00 in0.0 mm 0.00 in0.0 mm
02:15 AM 42.1°F5.6°C 37.6°F3.1°C 84% 1.3 mph N2.1 kmh N 2.0 mph3.2 kmh 30.04 in1017.3 mb - 0.00 in0.0 mm 0.00 in0.0 mm
02:30 AM 42.3°F5.7°C 37.8°F3.2°C 84% 0.5 mph N0.8 kmh N 1.0 mph1.6 kmh 30.03 in1016.9 mb - 0.00 in0.0 mm 0.00 in0.0 mm
02:45 AM 42.2°F5.7°C 38.3°F3.5°C 86% 1.5 mph N2.4 kmh N 2.0 mph3.2 kmh 30.02 in1016.6 mb - 0.00 in0.0 mm 0.00 in0.0 mm
03:00 AM 42.1°F5.6°C 38.0°F3.3°C 85% 1.2 mph N1.9 kmh N 2.0 mph3.2 kmh 30.02 in1016.6 mb - 0.00 in0.0 mm 0.00 in0.0 mm
03:15 AM 42.2°F5.7°C 38.3°F3.5°C 86% 0.4 mph N0.6 kmh N 1.0 mph1.6 kmh 30.01 in1016.3 mb - 0.00 in0.0 mm 0.00 in0.0 mm
03:30 AM 42.2°F5.7°C 38.6°F3.7°C 87% 0.3 mph N0.5 kmh N 1.0 mph1.6 kmh 30.00 in1015.9 mb - 0.00 in0.0 mm 0.00 in0.0 mm
03:45 AM 42.1°F5.6°C 38.5°F3.6°C 87% 0.8 mph N1.3 kmh N 2.0 mph3.2 kmh 30.00 in1015.9 mb - 0.00 in0.0 mm 0.00 in0.0 mm
04:00 AM 42.3°F5.7°C 39.0°F3.9°C 88% 1.5 mph N2.4 kmh N 2.0 mph3.2 kmh 29.98 in1015.2 mb - 0.00 in0.0 mm 0.00 in0.0 mm
04:15 AM 42.6°F5.9°C 39.6°F4.2°C 89% Calm Calm -- 29.98 in1015.2 mb - 0.00 in0.0 mm 0.00 in0.0 mm
04:30 AM 42.8°F6.0°C 40.0°F4.4°C 90% 0.9 mph N1.4 kmh N 2.0 mph3.2 kmh 29.97 in1014.9 mb - 0.00 in0.0 mm 0.00 in0.0 mm
04:45 AM 42.6°F5.9°C 40.2°F4.6°C 91% 1.7 mph N2.7 kmh N 2.0 mph3.2 kmh 29.96 in1014.6 mb - 0.00 in0.0 mm 0.00 in0.0 mm
05:00 AM 42.7°F5.9°C 40.5°F4.7°C 92% 0.2 mph N0.3 kmh N 1.0 mph1.6 kmh 29.96 in1014.6 mb - 0.00 in0.0 mm 0.00 in0.0 mm
05:15 AM 42.6°F5.9°C 40.4°F4.7°C 92% 0.3 mph N0.5 kmh N 1.0 mph1.6 kmh 29.95 in1014.2 mb - 0.00 in0.0 mm 0.00 in0.0 mm
05:30 AM 42.5°F5.8°C 40.4°F4.7°C 92% 0.9 mph N1.4 kmh N 1.0 mph1.6 kmh 29.94 in1013.9 mb - 0.00 in0.0 mm 0.00 in0.0 mm
05:45 AM 42.6°F5.9°C 40.7°F4.8°C 93% 2.5 mph WNW4.0 kmh WNW 4.0 mph6.4 kmh 29.93 in1013.5 mb - 0.00 in0.0 mm 0.00 in0.0 mm
06:00 AM 42.8°F6.0°C 41.2°F5.1°C 94% 1.6 mph W2.6 kmh W 2.0 mph3.2 kmh 29.92 in1013.2 mb - 0.00 in0.0 mm 0.00 in0.0 mm
06:15 AM 42.9°F6.1°C 41.3°F5.2°C 94% 1.2 mph W1.9 kmh W 2.0 mph3.2 kmh 29.92 in1013.2 mb - 0.00 in0.0 mm 0.00 in0.0 mm
06:30 AM 43.6°F6.4°C 42.0°F5.6°C 94% 2.0 mph SE3.2 kmh SE 4.0 mph6.4 kmh 29.91 in1012.9 mb - 0.00 in0.0 mm 0.00 in0.0 mm
06:45 AM 45.6°F7.6°C 44.3°F6.8°C 95% 2.7 mph S4.3 kmh S 3.0 mph4.8 kmh 29.91 in1012.9 mb - 0.00 in0.0 mm 0.00 in0.0 mm
07:00 AM 47.4°F8.6°C 45.1°F7.3°C 92% 5.4 mph SE8.7 kmh SE 8.0 mph12.9 kmh 29.90 in1012.5 mb - 0.00 in0.0 mm 0.00 in0.0 mm
07:15 AM 48.8°F9.3°C 45.5°F7.5°C 88% 2.6 mph SSE4.2 kmh SSE 10.0 mph16.1 kmh 29.90 in1012.5 mb - 0.00 in0.0 mm 0.00 in0.0 mm
07:30 AM 49.8°F9.9°C 45.5°F7.5°C 85% 1.1 mph SSE1.8 kmh SSE 2.0 mph3.2 kmh 29.89 in1012.2 mb - 0.00 in0.0 mm 0.00 in0.0 mm
07:45 AM 50.3°F10.2°C 45.7°F7.6°C 84% 4.7 mph SE7.6 kmh SE 7.0 mph11.3 kmh 29.89 in1012.2 mb - 0.00 in0.0 mm 0.00 in0.0 mm
08:00 AM 50.9°F10.5°C 46.2°F7.9°C 84% 5.4 mph SE8.7 kmh SE 7.0 mph11.3 kmh 29.88 in1011.9 mb - 0.00 in0.0 mm 0.00 in0.0 mm
08:15 AM 51.2°F10.7°C 47.2°F8.4°C 86% 4.1 mph SE6.6 kmh SE 7.0 mph11.3 kmh 29.88 in1011.9 mb - 0.01 in0.3 mm 0.01 in0.3 mm
08:30 AM 51.2°F10.7°C 47.5°F8.6°C 87% 2.3 mph SSW3.7 kmh SSW 4.0 mph6.4 kmh 29.87 in1011.5 mb - 0.01 in0.3 mm 0.02 in0.5 mm
08:45 AM 50.9°F10.5°C 47.8°F8.8°C 89% 1.7 mph S2.7 kmh S 2.0 mph3.2 kmh 29.87 in1011.5 mb - 0.05 in1.3 mm 0.07 in1.8 mm
09:00 AM 50.3°F10.2°C 47.8°F8.8°C 91% 2.0 mph SSE3.2 kmh SSE 3.0 mph4.8 kmh 29.87 in1011.5 mb - 0.12 in3.0 mm 0.18 in4.6 mm
09:15 AM 50.0°F10.0°C 47.8°F8.8°C 92% 0.5 mph S0.8 kmh S -- 29.86 in1011.2 mb - 0.02 in0.5 mm 0.20 in5.1 mm
09:30 AM 49.9°F9.9°C 48.0°F8.9°C 93% Calm Calm -- 29.86 in1011.2 mb - 0.01 in0.3 mm 0.21 in5.3 mm
09:45 AM 50.2°F10.1°C 48.6°F9.2°C 94% 1.7 mph SSW2.7 kmh SSW 3.0 mph4.8 kmh 29.85 in1010.8 mb - 0.00 in0.0 mm 0.21 in5.3 mm
10:00 AM 50.6°F10.3°C 49.0°F9.4°C 94% 0.2 mph S0.3 kmh S 1.0 mph1.6 kmh 29.84 in1010.5 mb - 0.00 in0.0 mm 0.21 in5.3 mm
10:15 AM 51.0°F10.6°C 49.6°F9.8°C 95% Calm Calm -- 29.84 in1010.5 mb - 0.00 in0.0 mm 0.21 in5.3 mm
10:30 AM 51.2°F10.7°C 49.8°F9.9°C 95% 0.9 mph S1.4 kmh S 2.0 mph3.2 kmh 29.83 in1010.2 mb - 0.00 in0.0 mm 0.21 in5.3 mm
10:45 AM 51.6°F10.9°C 50.2°F10.1°C 95% 0.9 mph S1.4 kmh S 2.0 mph3.2 kmh 29.82 in1009.8 mb - 0.00 in0.0 mm 0.21 in5.3 mm
11:00 AM 51.9°F11.1°C 50.5°F10.3°C 95% Calm Calm -- 29.81 in1009.5 mb - 0.00 in0.0 mm 0.21 in5.3 mm
11:15 AM 51.9°F11.1°C 50.5°F10.3°C 95% 0.1 mph S0.2 kmh S -- 29.80 in1009.1 mb - 0.00 in0.0 mm 0.21 in5.3 mm
11:30 AM 52.1°F11.2°C 50.7°F10.4°C 95% Calm Calm -- 29.79 in1008.8 mb - 0.00 in0.0 mm 0.21 in5.3 mm
11:45 AM 52.6°F11.4°C 51.2°F10.7°C 95% 0.2 mph S0.3 kmh S 1.0 mph1.6 kmh 29.78 in1008.5 mb - 0.00 in0.0 mm 0.21 in5.3 mm
12:00 PM 52.9°F11.6°C 51.5°F10.8°C 95% 1.4 mph S2.3 kmh S 2.0 mph3.2 kmh 29.77 in1008.1 mb - 0.00 in0.0 mm 0.21 in5.3 mm
12:15 PM 53.3°F11.8°C 51.9°F11.1°C 95% 1.2 mph S1.9 kmh S 2.0 mph3.2 kmh 29.76 in1007.8 mb - 0.00 in0.0 mm 0.21 in5.3 mm
12:30 PM 53.6°F12.0°C 51.9°F11.1°C 94% 1.4 mph SE2.3 kmh SE 3.0 mph4.8 kmh 29.75 in1007.5 mb - 0.00 in0.0 mm 0.21 in5.3 mm
12:45 PM 54.4°F12.4°C 51.5°F10.8°C 90% 1.2 mph SSE1.9 kmh SSE 2.0 mph3.2 kmh 29.75 in1007.5 mb - 0.00 in0.0 mm 0.21 in5.3 mm
01:00 PM 54.3°F12.4°C 49.9°F9.9°C 85% 3.0 mph SSW4.8 kmh SSW 4.0 mph6.4 kmh 29.74 in1007.1 mb - 0.00 in0.0 mm 0.21 in5.3 mm
01:15 PM 54.4°F12.4°C 49.3°F9.6°C 83% 2.6 mph SSW4.2 kmh SSW 6.0 mph9.7 kmh 29.74 in1007.1 mb - 0.00 in0.0 mm 0.21 in5.3 mm
01:30 PM 54.6°F12.6°C 48.2°F9.0°C 79% 1.9 mph SSW3.1 kmh SSW 3.0 mph4.8 kmh 29.73 in1006.8 mb - 0.00 in0.0 mm 0.21 in5.3 mm
01:45 PM 54.7°F12.6°C 47.3°F8.5°C 76% 2.1 mph S3.4 kmh S 6.0 mph9.7 kmh 29.73 in1006.8 mb - 0.00 in0.0 mm 0.21 in5.3 mm
02:00 PM 54.6°F12.6°C 46.8°F8.2°C 75% 3.2 mph SW5.1 kmh SW 5.0 mph8.0 kmh 29.73 in1006.8 mb - 0.00 in0.0 mm 0.21 in5.3 mm
02:15 PM 54.4°F12.4°C 45.9°F7.7°C 73% 1.4 mph S2.3 kmh S 3.0 mph4.8 kmh 29.72 in1006.4 mb - 0.00 in0.0 mm 0.21 in5.3 mm
02:30 PM 54.1°F12.3°C 46.3°F7.9°C 75% 2.6 mph SW4.2 kmh SW 4.0 mph6.4 kmh 29.72 in1006.4 mb - 0.00 in0.0 mm 0.21 in5.3 mm
02:45 PM 53.8°F12.1°C 45.0°F7.2°C 72% 2.8 mph SW4.5 kmh SW 4.0 mph6.4 kmh 29.72 in1006.4 mb - 0.00 in0.0 mm 0.21 in5.3 mm
03:00 PM 53.9°F12.2°C 44.7°F7.1°C 71% 2.9 mph W4.7 kmh W 7.0 mph11.3 kmh 29.72 in1006.4 mb - 0.00 in0.0 mm 0.21 in5.3 mm
03:15 PM 53.6°F12.0°C 43.3°F6.3°C 68% 0.3 mph SW0.5 kmh SW 1.0 mph1.6 kmh 29.72 in1006.4 mb - 0.00 in0.0 mm 0.21 in5.3 mm
03:30 PM 53.1°F11.7°C 42.5°F5.8°C 67% 0.6 mph WNW1.0 kmh WNW 2.0 mph3.2 kmh 29.72 in1006.4 mb - 0.00 in0.0 mm 0.21 in5.3 mm
03:45 PM 52.4°F11.3°C 42.9°F6.1°C 70% 2.5 mph ESE4.0 kmh ESE 4.0 mph6.4 kmh 29.73 in1006.8 mb - 0.00 in0.0 mm 0.21 in5.3 mm
04:00 PM 52.3°F11.3°C 40.1°F4.5°C 63% 2.9 mph SW4.7 kmh SW 12.0 mph19.3 kmh 29.74 in1007.1 mb - 0.00 in0.0 mm 0.21 in5.3 mm
04:15 PM 51.9°F11.1°C 40.1°F4.5°C 64% 5.0 mph S8.0 kmh S 12.0 mph19.3 kmh 29.75 in1007.5 mb - 0.00 in0.0 mm 0.21 in5.3 mm
04:30 PM 50.6°F10.3°C 39.7°F4.3°C 66% 3.2 mph SSW5.1 kmh SSW 5.0 mph8.0 kmh 29.75 in1007.5 mb - 0.00 in0.0 mm 0.21 in5.3 mm
04:45 PM 49.5°F9.7°C 39.4°F4.1°C 68% 1.1 mph W1.8 kmh W 4.0 mph6.4 kmh 29.75 in1007.5 mb - 0.00 in0.0 mm 0.21 in5.3 mm
05:00 PM 48.3°F9.1°C 39.4°F4.1°C 71% 1.0 mph SSE1.6 kmh SSE 2.0 mph3.2 kmh 29.76 in1007.8 mb - 0.00 in0.0 mm 0.21 in5.3 mm
05:15 PM 47.5°F8.6°C 39.2°F4.0°C 73% 4.3 mph W6.9 kmh W 8.0 mph12.9 kmh 29.76 in1007.8 mb - 0.00 in0.0 mm 0.21 in5.3 mm
05:30 PM 46.7°F8.2°C 38.9°F3.8°C 74% 2.1 mph WSW3.4 kmh WSW 4.0 mph6.4 kmh 29.77 in1008.1 mb - 0.00 in0.0 mm 0.21 in5.3 mm
05:45 PM 46.7°F8.2°C 38.5°F3.6°C 73% 1.7 mph NE2.7 kmh NE 2.0 mph3.2 kmh 29.78 in1008.5 mb - 0.00 in0.0 mm 0.21 in5.3 mm
06:00 PM 47.0°F8.3°C 38.1°F3.4°C 71% 3.0 mph S4.8 kmh S 7.0 mph11.3 kmh 29.79 in1008.8 mb - 0.00 in0.0 mm 0.21 in5.3 mm
06:15 PM 47.2°F8.4°C 37.5°F3.1°C 69% 3.5 mph WSW5.6 kmh WSW 7.0 mph11.3 kmh 29.79 in1008.8 mb - 0.00 in0.0 mm 0.21 in5.3 mm
06:30 PM 46.9°F8.3°C 37.3°F2.9°C 69% 2.4 mph SSW3.9 kmh SSW 3.0 mph4.8 kmh 29.79 in1008.8 mb - 0.00 in0.0 mm 0.21 in5.3 mm
06:45 PM 46.5°F8.1°C 36.9°F2.7°C 69% 2.7 mph S4.3 kmh S 6.0 mph9.7 kmh 29.80 in1009.1 mb - 0.00 in0.0 mm 0.21 in5.3 mm
07:00 PM 46.3°F7.9°C 37.0°F2.8°C 70% 2.4 mph WSW3.9 kmh WSW 6.0 mph9.7 kmh 29.80 in1009.1 mb - 0.00 in0.0 mm 0.21 in5.3 mm
07:15 PM 46.0°F7.8°C 37.1°F2.8°C 71% 1.9 mph SSW3.1 kmh SSW 3.0 mph4.8 kmh 29.81 in1009.5 mb - 0.00 in0.0 mm 0.21 in5.3 mm
07:30 PM 45.6°F7.6°C 37.1°F2.8°C 72% 2.6 mph SW4.2 kmh SW 12.0 mph19.3 kmh 29.81 in1009.5 mb - 0.00 in0.0 mm 0.21 in5.3 mm
07:45 PM 45.5°F7.5°C 37.0°F2.8°C 72% 3.3 mph SSW5.3 kmh SSW 5.0 mph8.0 kmh 29.81 in1009.5 mb - 0.00 in0.0 mm 0.21 in5.3 mm
08:00 PM 45.5°F7.5°C 37.0°F2.8°C 72% 2.4 mph SSW3.9 kmh SSW 3.0 mph4.8 kmh 29.81 in1009.5 mb - 0.00 in0.0 mm 0.21 in5.3 mm
08:15 PM 45.2°F7.3°C 37.1°F2.8°C 73% 0.4 mph W0.6 kmh W 1.0 mph1.6 kmh 29.81 in1009.5 mb - 0.00 in0.0 mm 0.21 in5.3 mm
08:30 PM 44.7°F7.1°C 36.9°F2.7°C 74% 2.2 mph SSE3.5 kmh SSE 6.0 mph9.7 kmh 29.81 in1009.5 mb - 0.00 in0.0 mm 0.21 in5.3 mm
08:45 PM 44.5°F6.9°C 36.4°F2.4°C 73% 1.2 mph SE1.9 kmh SE 2.0 mph3.2 kmh 29.81 in1009.5 mb - 0.00 in0.0 mm 0.21 in5.3 mm
09:00 PM 44.2°F6.8°C 36.4°F2.4°C 74% 1.1 mph S1.8 kmh S 1.0 mph1.6 kmh 29.82 in1009.8 mb - 0.00 in0.0 mm 0.21 in5.3 mm
09:15 PM 44.2°F6.8°C 36.1°F2.3°C 73% 2.0 mph W3.2 kmh W 4.0 mph6.4 kmh 29.82 in1009.8 mb - 0.00 in0.0 mm 0.21 in5.3 mm
09:30 PM 44.2°F6.8°C 36.1°F2.3°C 73% 2.2 mph SSW3.5 kmh SSW 3.0 mph4.8 kmh 29.82 in1009.8 mb - 0.00 in0.0 mm 0.21 in5.3 mm
09:45 PM 44.0°F6.7°C 35.9°F2.2°C 73% 1.2 mph SW1.9 kmh SW 2.0 mph3.2 kmh 29.82 in1009.8 mb - 0.00 in0.0 mm 0.21 in5.3 mm
10:00 PM 44.0°F6.7°C 36.2°F2.3°C 74% 3.2 mph SW5.1 kmh SW 6.0 mph9.7 kmh 29.82 in1009.8 mb - 0.00 in0.0 mm 0.21 in5.3 mm
10:15 PM 43.9°F6.6°C 36.1°F2.3°C 74% 1.9 mph NNE3.1 kmh NNE 3.0 mph4.8 kmh 29.82 in1009.8 mb - 0.00 in0.0 mm 0.21 in5.3 mm
10:30 PM 43.8°F6.6°C 36.0°F2.2°C 74% 5.4 mph S8.7 kmh S 4.0 mph6.4 kmh 29.82 in1009.8 mb - 0.00 in0.0 mm 0.21 in5.3 mm
10:45 PM 43.7°F6.5°C 36.0°F2.2°C 74% 2.1 mph W3.4 kmh W 4.0 mph6.4 kmh 29.82 in1009.8 mb - 0.00 in0.0 mm 0.21 in5.3 mm
11:00 PM 43.3°F6.3°C 35.6°F2.0°C 74% 1.1 mph SW1.8 kmh SW 3.0 mph4.8 kmh 29.82 in1009.8 mb - 0.00 in0.0 mm 0.21 in5.3 mm
11:15 PM 42.7°F5.9°C 35.4°F1.9°C 75% 2.8 mph S4.5 kmh S 4.0 mph6.4 kmh 29.82 in1009.8 mb - 0.00 in0.0 mm 0.21 in5.3 mm
11:30 PM 42.3°F5.7°C 35.3°F1.8°C 76% 1.4 mph SE2.3 kmh SE 3.0 mph4.8 kmh 29.82 in1009.8 mb - 0.00 in0.0 mm 0.21 in5.3 mm
11:45 PM 42.0°F5.6°C 35.0°F1.7°C 76% 2.2 mph SW3.5 kmh SW 3.0 mph4.8 kmh 29.82 in1009.8 mb - 0.00 in0.0 mm 0.21 in5.3 mm